createdAt,value
2022-08-02T00:00:39.058Z,5.25
2022-08-02T00:03:06.461Z,8.80
2022-08-02T00:05:33.942Z,4.88
2022-08-02T00:08:01.359Z,6.45
2022-08-02T00:10:28.909Z,6.05
2022-08-02T00:12:57.924Z,4.50
2022-08-02T00:15:25.279Z,5.40
2022-08-02T00:17:52.662Z,7.47
2022-08-02T00:20:20.079Z,5.30
2022-08-02T00:22:47.403Z,4.55
2022-08-02T00:25:14.787Z,5.82
2022-08-02T00:27:42.182Z,5.75
2022-08-02T00:30:09.815Z,6.15
2022-08-02T00:32:37.246Z,6.75
2022-08-02T00:35:04.733Z,7.60
2022-08-02T00:37:32.035Z,4.15
2022-08-02T00:39:59.461Z,5.70
2022-08-02T00:42:26.848Z,5.65
2022-08-02T00:44:54.186Z,4.85
2022-08-02T00:47:21.516Z,4.13
2022-08-02T00:49:48.986Z,5.03
2022-08-02T00:52:16.319Z,7.07
2022-08-02T00:54:43.684Z,5.10
2022-08-02T00:57:11.048Z,5.80
2022-08-02T00:59:38.478Z,4.78
2022-08-02T01:02:05.918Z,4.53
2022-08-02T01:04:33.460Z,5.97
2022-08-02T01:07:01.640Z,7.65
2022-08-02T01:09:29.088Z,8.68
2022-08-02T01:11:56.498Z,5.70
2022-08-02T01:14:25.232Z,8.18
2022-08-02T01:17:16.553Z,5.40
2022-08-02T01:19:59.125Z,9.02
2022-08-02T01:23:00.488Z,4.15
2022-08-02T01:26:03.877Z,7.35
2022-08-02T01:28:33.869Z,4.82
2022-08-02T01:31:14.897Z,6.05
2022-08-02T01:33:47.930Z,7.57
2022-08-02T01:36:18.840Z,6.47
2022-08-02T01:38:50.072Z,5.50
2022-08-02T01:41:21.186Z,10.88
2022-08-02T01:43:50.429Z,6.72
2022-08-02T01:46:19.048Z,5.70
2022-08-02T01:48:49.354Z,5.80
2022-08-02T01:53:49.962Z,4.03
2022-08-02T01:56:19.606Z,5.28
2022-08-02T01:58:48.936Z,3.78
2022-08-02T02:01:18.813Z,2.53
2022-08-02T02:03:48.660Z,3.35
2022-08-02T02:06:18.186Z,3.28
2022-08-02T02:08:45.570Z,18.60
2022-08-02T02:12:13.875Z,13.98
2022-08-02T02:14:02.204Z,6.50
2022-08-02T02:16:32.067Z,10.20
2022-08-02T02:19:02.722Z,4.70
2022-08-02T02:21:31.370Z,4.72
2022-08-02T02:23:59.141Z,5.70
2022-08-02T02:26:31.110Z,5.00
2022-08-02T02:29:01.997Z,5.85
2022-08-02T02:31:34.500Z,5.25
2022-08-02T02:34:05.753Z,12.95
2022-08-02T02:36:34.837Z,7.95
2022-08-02T02:39:10.256Z,5.65
2022-08-02T02:41:40.952Z,4.57
2022-08-02T02:44:12.345Z,12.35
2022-08-02T02:46:40.417Z,8.23
2022-08-02T02:49:10.588Z,8.48
2022-08-02T02:51:40.874Z,10.80
2022-08-02T02:56:58.902Z,10.40
2022-08-02T02:59:26.295Z,6.80
2022-08-02T03:01:56.212Z,5.80
2022-08-02T03:04:25.172Z,6.22
2022-08-02T03:06:52.312Z,5.35
2022-08-02T03:09:19.327Z,6.32
2022-08-02T03:11:47.259Z,13.15
2022-08-02T03:14:14.551Z,10.45
2022-08-02T03:16:50.558Z,7.43
2022-08-02T03:19:18.785Z,11.45
2022-08-02T03:21:47.169Z,11.73
2022-08-02T03:24:14.785Z,9.75
2022-08-02T03:26:54.738Z,16.85
2022-08-02T03:29:21.638Z,46.83
2022-08-02T03:31:49.970Z,12.05
2022-08-02T03:34:17.241Z,21.63
2022-08-02T03:36:48.447Z,11.57
2022-08-02T03:39:16.609Z,16.50
2022-08-02T03:41:43.913Z,12.55
2022-08-02T03:44:12.542Z,12.30
2022-08-02T03:46:40.835Z,17.85
2022-08-02T03:49:09.306Z,28.92
2022-08-02T03:51:36.568Z,32.95
2022-08-02T03:54:04.372Z,29.92
2022-08-02T03:56:32.738Z,19.85
2022-08-02T03:59:11.691Z,34.15
2022-08-02T04:01:39.362Z,12.82
2022-08-02T04:04:06.978Z,25.13
2022-08-02T04:06:34.542Z,20.77
2022-08-02T04:09:02.093Z,16.67
2022-08-02T04:11:31.937Z,38.53
2022-08-02T04:14:01.648Z,17.25
2022-08-02T04:16:34.298Z,16.90
2022-08-02T04:19:03.820Z,20.73
2022-08-02T04:21:49.036Z,16.40
2022-08-02T04:24:26.695Z,21.35
2022-08-02T04:26:57.884Z,14.65
2022-08-02T04:29:34.152Z,13.00
2022-08-02T04:32:01.481Z,14.02
2022-08-02T04:34:28.523Z,17.80
2022-08-02T04:36:55.877Z,12.23
2022-08-02T04:39:22.872Z,13.75
2022-08-02T04:41:54.429Z,13.07
2022-08-02T04:44:24.255Z,14.20
2022-08-02T04:46:51.523Z,10.80
2022-08-02T04:49:18.554Z,8.40
2022-08-02T04:51:45.550Z,14.73
2022-08-02T04:54:12.896Z,10.23
2022-08-02T04:56:40.382Z,7.78
2022-08-02T04:59:08.007Z,8.25
2022-08-02T05:01:39.408Z,6.88
2022-08-02T05:04:06.330Z,7.93
2022-08-02T05:06:33.240Z,8.15
2022-08-02T05:09:00.400Z,10.15
2022-08-02T05:11:36.138Z,11.35
2022-08-02T05:14:05.493Z,10.65
2022-08-02T05:16:32.961Z,9.32
2022-08-02T05:19:01.306Z,21.48
2022-08-02T05:21:29.389Z,10.67
2022-08-02T05:23:57.071Z,13.57
2022-08-02T05:26:24.009Z,15.73
2022-08-02T05:28:51.332Z,18.67
2022-08-02T05:31:18.276Z,10.57
2022-08-02T05:33:45.174Z,19.23
2022-08-02T05:36:12.163Z,12.02
2022-08-02T05:38:39.134Z,18.67
2022-08-02T05:41:06.813Z,15.32
2022-08-02T05:43:33.822Z,10.85
2022-08-02T05:46:00.852Z,10.38
2022-08-02T05:48:31.507Z,11.07
2022-08-02T05:51:27.902Z,9.88
2022-08-02T05:54:20.558Z,10.23
2022-08-02T05:57:03.166Z,10.02
2022-08-02T05:59:42.484Z,9.70
2022-08-02T06:02:44.027Z,11.52
2022-08-02T06:05:11.880Z,10.50
2022-08-02T06:07:41.918Z,11.63
2022-08-02T06:10:10.408Z,14.45
2022-08-02T06:12:53.888Z,8.77
2022-08-02T06:15:21.660Z,16.02
2022-08-02T06:17:48.918Z,8.98
2022-08-02T06:20:20.436Z,11.75
2022-08-02T06:22:47.954Z,13.93
2022-08-02T06:25:51.028Z,9.63
2022-08-02T06:28:11.292Z,8.50
2022-08-02T06:30:40.853Z,9.35
2022-08-02T06:33:08.190Z,10.07
2022-08-02T06:35:45.986Z,9.05
2022-08-02T06:38:19.707Z,7.63
2022-08-02T06:40:56.531Z,9.18
2022-08-02T06:43:23.890Z,8.02
2022-08-02T06:45:51.230Z,7.70
2022-08-02T06:48:18.644Z,8.95
2022-08-02T06:50:46.244Z,8.63
2022-08-02T06:53:13.586Z,9.63
2022-08-02T06:55:44.119Z,16.17
2022-08-02T06:58:12.768Z,11.93
2022-08-02T07:00:40.325Z,13.63
2022-08-02T07:03:07.344Z,8.75
2022-08-02T07:05:35.167Z,8.60
2022-08-02T07:08:03.039Z,11.10
2022-08-02T07:10:30.428Z,13.65
2022-08-02T07:12:59.886Z,7.43
2022-08-02T07:15:27.559Z,9.00
2022-08-02T07:17:54.991Z,8.55
2022-08-02T07:20:21.978Z,10.50
2022-08-02T07:22:49.450Z,10.90
2022-08-02T07:25:16.780Z,8.70
2022-08-02T07:27:44.361Z,11.63
2022-08-02T07:30:11.777Z,11.60
2022-08-02T07:32:39.285Z,11.15
2022-08-02T07:35:07.832Z,11.43
2022-08-02T07:37:54.961Z,10.60
2022-08-02T07:43:02.478Z,11.30
2022-08-02T07:45:31.832Z,11.05
2022-08-02T07:47:59.192Z,12.32
2022-08-02T07:50:28.953Z,11.13
2022-08-02T07:52:58.106Z,8.57
2022-08-02T07:55:38.988Z,14.80
2022-08-02T07:58:12.242Z,9.77
2022-08-02T08:00:40.948Z,12.98
2022-08-02T08:03:08.792Z,8.45
2022-08-02T08:05:36.227Z,9.77
2022-08-02T08:08:04.032Z,9.38
2022-08-02T08:10:32.364Z,9.18
2022-08-02T08:12:59.713Z,11.13
2022-08-02T08:15:27.054Z,8.38
2022-08-02T08:17:54.415Z,9.60
2022-08-02T08:20:21.997Z,10.57
2022-08-02T08:22:50.292Z,7.03
2022-08-02T08:25:17.627Z,8.50
2022-08-02T08:27:52.603Z,7.88
2022-08-02T08:30:22.509Z,7.28
2022-08-02T08:32:50.118Z,6.43
2022-08-02T08:35:17.787Z,3.92
2022-08-02T08:37:45.291Z,4.05
2022-08-02T08:40:12.782Z,3.80
2022-08-02T08:42:40.247Z,7.75
2022-08-02T08:45:08.021Z,4.53
2022-08-02T08:47:42.689Z,6.47
2022-08-02T08:50:24.376Z,8.15
2022-08-02T08:53:00.384Z,4.50
2022-08-02T08:55:28.500Z,7.30
2022-08-02T08:57:57.181Z,5.63
2022-08-02T09:00:24.500Z,3.63
2022-08-02T09:02:52.043Z,3.78
2022-08-02T09:05:19.563Z,3.88
2022-08-02T09:07:51.574Z,4.70
2022-08-02T09:10:55.220Z,4.68
2022-08-02T09:13:45.345Z,13.05
2022-08-02T09:16:14.336Z,4.20
2022-08-02T09:18:47.383Z,4.95
2022-08-02T09:21:16.857Z,2.83
2022-08-02T09:23:49.280Z,8.02
2022-08-02T09:26:21.795Z,6.75
2022-08-02T09:28:51.626Z,3.17
2022-08-02T09:31:23.641Z,5.55
2022-08-02T09:33:58.641Z,2.20
2022-08-02T09:36:28.205Z,2.05
2022-08-02T09:39:04.233Z,3.88
2022-08-02T09:41:35.435Z,3.13
2022-08-02T09:44:06.650Z,2.75
2022-08-02T09:46:42.825Z,3.40
2022-08-02T09:49:13.225Z,2.83
2022-08-02T09:51:47.791Z,2.38
2022-08-02T09:54:33.196Z,3.10
2022-08-02T09:57:01.937Z,4.25
2022-08-02T09:59:30.928Z,2.03
2022-08-02T10:02:02.529Z,4.65
2022-08-02T10:04:33.944Z,2.10
2022-08-02T10:07:06.943Z,1.90
2022-08-02T10:09:34.567Z,1.70
2022-08-02T10:12:03.537Z,4.20
2022-08-02T10:14:34.949Z,6.53
2022-08-02T10:17:05.023Z,3.45
2022-08-02T10:22:19.900Z,3.28
2022-08-02T10:24:48.178Z,4.18
2022-08-02T10:27:22.571Z,5.40
2022-08-02T10:29:54.215Z,2.25
2022-08-02T10:32:40.549Z,2.80
2022-08-02T10:35:18.973Z,2.72
2022-08-02T10:37:55.048Z,1.92
2022-08-02T10:40:26.998Z,2.20
2022-08-02T10:43:00.842Z,1.40
2022-08-02T10:45:28.697Z,5.72
2022-08-02T10:48:01.288Z,0.95
2022-08-02T10:50:47.153Z,6.13
2022-08-02T10:53:29.327Z,2.13
2022-08-02T10:55:58.698Z,1.52
2022-08-02T10:58:32.319Z,2.72
2022-08-02T11:01:04.741Z,1.35
2022-08-02T11:03:33.025Z,3.13
2022-08-02T11:06:08.325Z,2.38
2022-08-02T11:08:35.740Z,3.08
2022-08-02T11:11:17.384Z,5.10
2022-08-02T11:14:07.215Z,1.65
2022-08-02T11:16:55.872Z,1.85
2022-08-02T11:19:27.388Z,3.15
2022-08-02T11:22:08.042Z,6.03
2022-08-02T11:24:37.866Z,1.60
2022-08-02T11:27:07.427Z,5.63
2022-08-02T11:29:42.242Z,3.20
2022-08-02T11:32:22.565Z,1.85
2022-08-02T11:34:59.243Z,5.15
2022-08-02T11:37:31.344Z,1.63
2022-08-02T11:39:58.640Z,2.97
2022-08-02T11:42:33.064Z,1.63
2022-08-02T11:45:00.414Z,1.50
2022-08-02T11:47:28.082Z,1.25
2022-08-02T11:50:17.196Z,1.50
2022-08-02T11:52:44.935Z,3.45
2022-08-02T11:55:12.004Z,2.75
2022-08-02T11:58:03.870Z,2.80
2022-08-02T12:00:30.703Z,2.88
2022-08-02T12:02:58.689Z,1.50
2022-08-02T12:06:02.817Z,1.75
2022-08-02T12:08:14.119Z,6.72
2022-08-02T12:10:50.332Z,5.75
2022-08-02T12:13:17.591Z,2.72
2022-08-02T12:15:46.431Z,4.00
2022-08-02T12:18:36.693Z,2.72
2022-08-02T12:21:04.792Z,2.80
2022-08-02T12:23:32.272Z,2.88
2022-08-02T12:26:15.847Z,2.90
2022-08-02T12:28:43.979Z,3.00
2022-08-02T12:31:15.490Z,10.10
2022-08-02T12:33:53.446Z,2.50
2022-08-02T12:36:22.691Z,3.13
2022-08-02T12:38:53.446Z,5.40
2022-08-02T12:41:31.988Z,2.95
2022-08-02T12:44:00.532Z,2.20
2022-08-02T12:46:27.871Z,3.78
2022-08-02T12:49:17.910Z,4.88
2022-08-02T12:51:51.142Z,2.13
2022-08-02T12:54:32.093Z,2.30
2022-08-02T12:57:19.858Z,5.25
2022-08-02T12:59:53.216Z,4.55
2022-08-02T13:02:21.548Z,3.17
2022-08-02T13:04:50.239Z,3.63
2022-08-02T13:07:18.431Z,2.67
2022-08-02T13:09:46.909Z,1.48
2022-08-02T13:12:14.622Z,2.45
2022-08-02T13:14:42.748Z,7.03
2022-08-02T13:17:15.045Z,9.68
2022-08-02T13:19:43.721Z,2.38
2022-08-02T13:22:11.504Z,1.73
2022-08-02T13:24:55.836Z,5.43
2022-08-02T13:27:25.087Z,2.45
2022-08-02T13:32:41.827Z,1.83
2022-08-02T13:35:17.847Z,1.35
2022-08-02T13:37:48.282Z,1.65
2022-08-02T13:40:21.985Z,1.58
2022-08-02T13:42:51.820Z,2.20
2022-08-02T13:45:20.199Z,2.20
2022-08-02T13:48:03.220Z,2.70
2022-08-02T13:50:33.648Z,6.53
2022-08-02T13:53:02.781Z,4.93
2022-08-02T13:55:32.142Z,1.77
2022-08-02T13:58:00.745Z,3.55
2022-08-02T14:00:34.767Z,3.13
2022-08-02T14:03:12.124Z,2.30
2022-08-02T14:05:48.149Z,5.47
2022-08-02T14:08:25.058Z,2.70
2022-08-02T14:10:52.953Z,5.72
2022-08-02T14:13:21.450Z,2.72
2022-08-02T14:15:48.731Z,4.60
2022-08-02T14:18:16.411Z,2.65
2022-08-02T14:20:45.254Z,2.17
2022-08-02T14:23:13.016Z,3.63
2022-08-02T14:25:40.770Z,4.93
2022-08-02T14:28:08.551Z,3.10
2022-08-02T14:30:36.179Z,3.42
2022-08-02T14:33:04.106Z,2.53
2022-08-02T14:35:32.041Z,4.10
2022-08-02T14:37:59.239Z,5.30
2022-08-02T14:40:31.698Z,2.90
2022-08-02T14:43:00.916Z,2.80
2022-08-02T14:45:40.023Z,2.70
2022-08-02T14:48:12.510Z,1.60
2022-08-02T14:50:40.352Z,2.53
2022-08-02T14:53:12.145Z,2.63
2022-08-02T14:55:40.256Z,3.88
2022-08-02T14:58:07.122Z,3.65
2022-08-02T15:00:37.299Z,3.05
2022-08-02T15:03:09.108Z,2.00
2022-08-02T15:05:36.635Z,1.98
2022-08-02T15:08:03.812Z,3.20
2022-08-02T15:10:30.800Z,2.10
2022-08-02T15:12:58.259Z,2.03
2022-08-02T15:15:26.212Z,2.13
2022-08-02T15:17:54.007Z,1.65
2022-08-02T15:20:25.785Z,4.55
2022-08-02T15:22:54.163Z,5.18
2022-08-02T15:25:22.509Z,2.35
2022-08-02T15:27:51.320Z,2.80
2022-08-02T15:30:20.691Z,1.63
2022-08-02T15:32:53.008Z,2.88
2022-08-02T15:35:22.537Z,1.83
2022-08-02T15:37:49.971Z,2.95
2022-08-02T15:40:17.281Z,1.38
2022-08-02T15:42:44.425Z,2.42
2022-08-02T15:45:13.219Z,1.30
2022-08-02T15:47:48.201Z,2.17
2022-08-02T15:50:18.571Z,3.60
2022-08-02T15:52:45.710Z,2.15
2022-08-02T15:55:12.855Z,2.83
2022-08-02T15:57:40.171Z,2.40
2022-08-02T16:00:18.028Z,1.70
2022-08-02T16:02:46.932Z,1.05
2022-08-02T16:05:17.733Z,4.83
2022-08-02T16:07:46.271Z,2.03
2022-08-02T16:10:13.658Z,1.92
2022-08-02T16:12:41.020Z,1.73
2022-08-02T16:15:08.694Z,1.80
2022-08-02T16:17:53.541Z,2.72
2022-08-02T16:20:21.343Z,2.35
2022-08-02T16:22:48.424Z,4.20
2022-08-02T16:25:17.281Z,2.83
2022-08-02T16:27:57.896Z,4.78
2022-08-02T16:30:32.378Z,11.10
2022-08-02T16:32:59.742Z,11.38
2022-08-02T16:35:28.326Z,7.18
2022-08-02T16:37:55.562Z,7.57
2022-08-02T16:40:23.095Z,5.57
2022-08-02T16:42:50.509Z,2.83
2022-08-02T16:45:20.047Z,3.67
2022-08-02T16:47:56.117Z,3.22
2022-08-02T16:50:27.149Z,3.15
2022-08-02T16:55:22.907Z,1.95
2022-08-02T16:57:50.220Z,2.15
2022-08-02T17:00:17.943Z,2.97
2022-08-02T17:02:47.014Z,2.70
2022-08-02T17:05:14.897Z,3.30
2022-08-02T17:08:07.840Z,2.08
2022-08-02T17:10:30.546Z,2.00
2022-08-02T17:12:58.554Z,5.75
2022-08-02T17:16:15.902Z,5.13
2022-08-02T17:18:26.908Z,4.93
2022-08-02T17:20:54.515Z,1.55
2022-08-02T17:23:21.930Z,1.70
2022-08-02T17:28:41.658Z,6.88
2022-08-02T17:31:29.493Z,1.55
2022-08-02T17:33:57.270Z,2.65
2022-08-02T17:36:25.984Z,1.20
2022-08-02T17:38:52.938Z,3.05
2022-08-02T17:44:08.663Z,1.60
2022-08-02T17:46:36.100Z,1.63
2022-08-02T17:49:16.692Z,2.10
2022-08-02T17:52:48.233Z,1.63
2022-08-02T17:54:33.367Z,3.25
2022-08-02T17:57:00.712Z,1.52
2022-08-02T17:59:30.642Z,1.33
2022-08-02T18:02:01.262Z,3.10
2022-08-02T18:04:31.498Z,4.25
2022-08-02T18:07:03.970Z,1.60
2022-08-02T18:09:32.241Z,4.00
2022-08-02T18:11:59.622Z,1.73
2022-08-02T18:14:27.257Z,1.20
2022-08-02T18:16:54.640Z,1.80
2022-08-02T18:19:21.670Z,1.50
2022-08-02T18:21:49.116Z,2.25
2022-08-02T18:24:16.666Z,1.38
2022-08-02T18:26:43.904Z,1.83
2022-08-02T18:29:12.073Z,2.03
2022-08-02T18:31:49.467Z,3.88
2022-08-02T18:34:24.097Z,1.95
2022-08-02T18:36:51.967Z,2.40
2022-08-02T18:39:19.627Z,1.33
2022-08-02T18:41:48.016Z,1.90
2022-08-02T18:47:05.096Z,1.40
2022-08-02T18:49:46.504Z,3.85
2022-08-02T18:52:16.628Z,1.98
2022-08-02T18:54:58.231Z,2.72
2022-08-02T18:58:18.518Z,2.65
2022-08-02T19:00:14.072Z,1.58
2022-08-02T19:02:42.712Z,4.28
2022-08-02T19:05:13.316Z,4.22
2022-08-02T19:07:50.699Z,1.50
2022-08-02T19:10:20.526Z,2.25
2022-08-02T19:12:47.558Z,6.03
2022-08-02T19:15:19.246Z,1.85
2022-08-02T19:17:53.959Z,2.60
2022-08-02T19:20:21.722Z,1.55
2022-08-02T19:22:53.819Z,1.85
2022-08-02T19:25:27.611Z,4.03
2022-08-02T19:27:55.873Z,6.90
2022-08-02T19:30:25.710Z,2.40
2022-08-02T19:33:00.203Z,2.83
2022-08-02T19:35:34.386Z,1.92
2022-08-02T19:38:11.322Z,4.25
2022-08-02T19:40:42.177Z,6.20
2022-08-02T19:44:26.775Z,3.00
2022-08-02T19:45:58.290Z,9.50
2022-08-02T19:48:27.020Z,3.72
2022-08-02T19:50:56.713Z,2.92
2022-08-02T19:53:28.902Z,13.80
2022-08-02T19:56:20.870Z,18.27
2022-08-02T19:58:49.762Z,11.15
2022-08-02T20:03:54.183Z,12.90
2022-08-02T20:06:29.300Z,10.82
2022-08-02T20:08:58.918Z,3.22
2022-08-02T20:11:26.994Z,8.43
2022-08-02T20:13:54.427Z,3.85
2022-08-02T20:16:27.734Z,5.38
2022-08-02T20:18:56.553Z,8.50
2022-08-02T20:21:35.969Z,2.15
2022-08-02T20:24:11.823Z,6.05
2022-08-02T20:26:47.263Z,8.10
2022-08-02T20:29:15.407Z,2.97
2022-08-02T20:32:02.962Z,4.80
2022-08-02T20:34:30.340Z,2.90
2022-08-02T20:36:57.698Z,10.88
2022-08-02T20:39:43.119Z,10.20
2022-08-02T20:42:22.747Z,3.65
2022-08-02T20:44:54.599Z,5.68
2022-08-02T20:47:27.665Z,5.63
2022-08-02T20:50:14.289Z,2.63
2022-08-02T20:52:44.506Z,8.77
2022-08-02T20:55:17.333Z,12.88
2022-08-02T20:57:59.985Z,6.93
2022-08-02T21:00:28.615Z,8.63
2022-08-02T21:02:56.314Z,8.07
2022-08-02T21:05:26.886Z,4.88
2022-08-02T21:08:14.152Z,4.93
2022-08-02T21:10:43.542Z,3.05
2022-08-02T21:13:18.937Z,7.73
2022-08-02T21:15:49.632Z,3.58
2022-08-02T21:18:24.454Z,6.47
2022-08-02T21:20:57.713Z,8.63
2022-08-02T21:23:25.139Z,5.38
2022-08-02T21:25:56.827Z,2.85
2022-08-02T21:28:24.947Z,2.22
2022-08-02T21:31:12.231Z,3.65
2022-08-02T21:33:57.087Z,2.88
2022-08-02T21:36:30.155Z,4.13
2022-08-02T21:39:04.258Z,3.45
2022-08-02T21:41:39.866Z,2.97
2022-08-02T21:44:20.756Z,5.82
2022-08-02T21:46:53.900Z,9.00
2022-08-02T21:49:40.983Z,4.68
2022-08-02T21:52:12.542Z,6.05
2022-08-02T21:54:40.832Z,8.88
2022-08-02T21:57:16.091Z,3.15
2022-08-02T21:59:45.946Z,7.72
2022-08-02T22:02:14.257Z,4.97
2022-08-02T22:04:47.560Z,4.10
2022-08-02T22:07:17.044Z,2.17
2022-08-02T22:09:45.613Z,3.25
2022-08-02T22:12:17.895Z,3.33
2022-08-02T22:14:54.508Z,3.35
2022-08-02T22:17:51.349Z,2.53
2022-08-02T22:20:19.631Z,8.50
2022-08-02T22:22:50.727Z,3.05
2022-08-02T22:28:37.140Z,5.53
2022-08-02T22:30:57.428Z,10.98
2022-08-02T22:33:59.923Z,4.30
2022-08-02T22:36:33.466Z,8.25
2022-08-02T22:39:01.769Z,8.88
2022-08-02T22:41:41.823Z,8.10
2022-08-02T22:44:18.429Z,4.43
2022-08-02T22:46:46.287Z,4.07
2022-08-02T22:49:17.479Z,6.10
2022-08-02T22:52:01.066Z,6.63
2022-08-02T22:54:29.596Z,10.65
2022-08-02T22:56:59.350Z,5.38
2022-08-02T22:58:38.443Z,2.05
2022-08-02T22:58:45.272Z,1.50
2022-08-02T22:58:48.814Z,2.15
2022-08-02T22:59:39.511Z,5.43
2022-08-02T23:02:07.780Z,2.47
2022-08-02T23:04:36.564Z,8.30
2022-08-02T23:07:04.046Z,3.72
2022-08-02T23:09:31.401Z,2.78
2022-08-02T23:11:58.777Z,3.00
2022-08-02T23:14:26.146Z,5.75
2022-08-02T23:17:12.076Z,4.35
2022-08-02T23:19:51.725Z,3.55
2022-08-02T23:22:29.863Z,2.95
2022-08-02T23:25:00.748Z,6.53
2022-08-02T23:27:28.701Z,4.13
2022-08-02T23:29:56.017Z,6.18
2022-08-02T23:32:25.964Z,3.38
2022-08-02T23:34:57.236Z,2.35
2022-08-02T23:37:24.770Z,4.20
2022-08-02T23:39:52.615Z,5.00
2022-08-02T23:42:20.051Z,3.65
2022-08-02T23:44:47.435Z,4.53
2022-08-02T23:47:16.991Z,2.80
2022-08-02T23:49:44.512Z,3.30
2022-08-02T23:52:12.121Z,3.22
2022-08-02T23:54:39.993Z,4.10
2022-08-02T23:57:20.847Z,4.15
2022-08-02T23:59:49.359Z,3.20
